| time (UTC) | temp F | wind direction | speed MPH | gust MPH | rain 1hr in | rain 24hr in | rain mn in | humidity % | barometer mb |
| 20260507213526 | 71 | 80 | 1.0 | 3.0 | 0.00 | 0.00 | 0.00 | 45 | 1024.9 |
| 20260507212529 | 70 | 225 | 0.0 | 0.0 | 0.00 | 0.00 | 0.00 | 45 | 1024.9 |
| 20260507211545 | 71 | 126 | 0.0 | 1.0 | 0.00 | 0.00 | 0.00 | 44 | 1024.9 |
| 20260507210543 | 71 | 185 | 0.0 | 2.0 | 0.00 | 0.00 | 0.00 | 43 | 1024.9 |
| 20260507204628 | 73 | 88 | 0.0 | 1.0 | 0.00 | 0.00 | 0.00 | 43 | 1024.8 |
| 20260507203627 | 74 | 180 | 1.0 | 3.0 | 0.00 | 0.00 | 0.00 | 42 | 1024.9 |
| 20260507202627 | 75 | 292 | 0.0 | 1.0 | 0.00 | 0.00 | 0.00 | 41 | 1025.0 |
| 20260507201627 | 74 | 142 | 0.0 | 2.0 | 0.00 | 0.00 | 0.00 | 40 | 1024.9 |
| 20260507200626 | 75 | 174 | 4.0 | 5.0 | 0.00 | 0.00 | 0.00 | 38 | 1024.9 |
| 20260507195627 | 75 | 135 | 1.0 | 2.0 | 0.00 | 0.00 | 0.00 | 39 | 1024.9 |
| 20260507194727 | 74 | 39 | 0.0 | 3.0 | 0.00 | 0.00 | 0.00 | 39 | 1024.9 |
| 20260507193728 | 75 | 221 | 1.0 | 2.0 | 0.00 | 0.00 | 0.00 | 39 | 1024.9 |
| 20260507192727 | 76 | 167 | 0.0 | 1.0 | 0.00 | 0.00 | 0.00 | 37 | 1025.0 |
| 20260507191727 | 76 | 135 | 0.0 | 1.0 | 0.00 | 0.00 | 0.00 | 34 | 1025.1 |
| 20260507190827 | 75 | 315 | 0.0 | 0.0 | 0.00 | 0.00 | 0.00 | 35 | 1025.1 |
| 20260507184828 | 75 | 202 | 0.0 | 1.0 | 0.00 | 0.00 | 0.00 | 33 | 1025.2 |
| 20260507183828 | 74 | 93 | 0.0 | 0.0 | 0.00 | 0.00 | 0.00 | 34 | 1025.3 |
| 20260507182826 | 73 | 315 | 0.0 | 1.0 | 0.00 | 0.00 | 0.00 | 36 | 1025.3 |
| 20260507181826 | 73 | 200 | 0.0 | 1.0 | 0.00 | 0.00 | 0.00 | 38 | 1025.3 |
| 20260507180925 | 72 | 12 | 1.0 | 6.0 | 0.00 | 0.00 | 0.00 | 40 | 1025.3 |
| 20260507175927 | 72 | 157 | 0.0 | 0.0 | 0.00 | 0.00 | 0.00 | 39 | 1025.3 |
| 20260507174928 | 73 | 163 | 1.0 | 2.0 | 0.00 | 0.00 | 0.00 | 39 | 1025.3 |
| 20260507172927 | 70 | 157 | 0.0 | 1.0 | 0.00 | 0.00 | 0.00 | 41 | 1025.2 |
| 20260507171927 | 69 | 202 | 0.0 | 0.0 | 0.00 | 0.00 | 0.00 | 45 | 1025.3 |
| 20260507170942 | 70 | 180 | 0.0 | 3.0 | 0.00 | 0.00 | 0.00 | 47 | 1025.2 |
| 20260507165927 | 69 | 157 | 2.0 | 2.0 | 0.00 | 0.00 | 0.00 | 49 | 1025.2 |
| 20260507164927 | 68 | 157 | 0.0 | 1.0 | 0.00 | 0.00 | 0.00 | 50 | 1025.3 |
| 20260507163927 | 67 | 135 | 1.0 | 1.0 | 0.00 | 0.00 | 0.00 | 52 | 1025.3 |
| 20260507162928 | 66 | 135 | 1.0 | 2.0 | 0.00 | 0.00 | 0.00 | 54 | 1025.3 |
| 20260507161927 | 64 | 135 | 0.0 | 0.0 | 0.00 | 0.00 | 0.00 | 58 | 1025.3 |
| 20260507160926 | 61 | 157 | 0.0 | 0.0 | 0.00 | 0.00 | 0.00 | 59 | 1025.3 |
| 20260507155026 | 58 | 135 | 0.0 | 1.0 | 0.00 | 0.00 | 0.00 | 64 | 1025.2 |
| 20260507154028 | 57 | 45 | 0.0 | 0.0 | 0.00 | 0.00 | 0.00 | 64 | 1025.3 |
| 20260507153028 | 55 | 45 | 0.0 | 0.0 | 0.00 | 0.00 | 0.00 | 68 | 1025.0 |
| 20260507152044 | 54 | 45 | 0.0 | 0.0 | 0.00 | 0.00 | 0.00 | 69 | 1025.0 |
| 20260507151027 | 52 | 45 | 0.0 | 0.0 | 0.00 | 0.00 | 0.00 | 69 | 1025.0 |
| 20260507150030 | 51 | 45 | 0.0 | 0.0 | 0.00 | 0.00 | 0.00 | 74 | 1025.0 |
| 20260507145028 | 50 | 45 | 0.0 | 0.0 | 0.00 | 0.00 | 0.00 | 77 | 1024.9 |
| 20260507144035 | 49 | 45 | 0.0 | 0.0 | 0.00 | 0.00 | 0.00 | 77 | 1024.9 |
| 20260507143126 | 49 | 45 | 0.0 | 0.0 | 0.00 | 0.00 | 0.00 | 76 | 1024.9 |
| 20260507142128 | 48 | 45 | 0.0 | 0.0 | 0.00 | 0.00 | 0.00 | 76 | 1024.9 |
| 20260507141126 | 47 | 45 | 0.0 | 0.0 | 0.00 | 0.00 | 0.00 | 76 | 1024.8 |
| 20260507140130 | 47 | 45 | 0.0 | 0.0 | 0.00 | 0.00 | 0.00 | 76 | 1024.8 |
| 20260507135226 | 47 | 45 | 0.0 | 0.0 | 0.00 | 0.00 | 0.00 | 74 | 1024.7 |
| 20260507134226 | 47 | 45 | 0.0 | 0.0 | 0.00 | 0.00 | 0.00 | 73 | 1024.5 |
| 20260507133227 | 47 | 45 | 0.0 | 0.0 | 0.00 | 0.00 | 0.00 | 72 | 1024.4 |
| 20260507131227 | 47 | 45 | 0.0 | 0.0 | 0.00 | 0.00 | 0.00 | 72 | 1024.2 |
| 20260507131128 | 47 | 45 | 0.0 | 0.0 | 0.00 | 0.00 | 0.00 | 72 | 1024.1 |
| 20260507130127 | 47 | 45 | 0.0 | 0.0 | 0.00 | 0.00 | 0.00 | 72 | 1024.2 |
| 20260507125126 | 47 | 45 | 0.0 | 0.0 | 0.00 | 0.00 | 0.00 | 73 | 1024.2 |
| 20260507124226 | 47 | 45 | 0.0 | 0.0 | 0.00 | 0.00 | 0.00 | 73 | 1024.3 |
| 20260507122226 | 47 | 45 | 0.0 | 0.0 | 0.00 | 0.00 | 0.00 | 74 | 1024.1 |
| 20260507120229 | 47 | 45 | 0.0 | 0.0 | 0.00 | 0.00 | 0.00 | 72 | 1024.1 |
| 20260507115227 | 47 | 45 | 0.0 | 0.0 | 0.00 | 0.00 | 0.00 | 70 | 1024.0 |
| 20260507114229 | 47 | 45 | 0.0 | 0.0 | 0.00 | 0.00 | 0.00 | 69 | 1024.2 |
| 20260507113226 | 48 | 45 | 0.0 | 0.0 | 0.00 | 0.00 | 0.00 | 68 | 1024.2 |
| 20260507112228 | 48 | 45 | 0.0 | 0.0 | 0.00 | 0.00 | 0.00 | 67 | 1024.1 |
| 20260507111326 | 48 | 45 | 0.0 | 0.0 | 0.00 | 0.00 | 0.00 | 66 | 1024.1 |
| 20260507110329 | 48 | 45 | 0.0 | 0.0 | 0.00 | 0.00 | 0.00 | 68 | 1024.1 |
| 20260507105329 | 47 | 45 | 0.0 | 0.0 | 0.00 | 0.00 | 0.00 | 67 | 1024.2 |
| 20260507104330 | 47 | 45 | 0.0 | 0.0 | 0.00 | 0.00 | 0.00 | 67 | 1024.1 |
| 20260507103326 | 47 | 45 | 0.0 | 0.0 | 0.00 | 0.00 | 0.00 | 68 | 1024.3 |
| 20260507102343 | 48 | 45 | 0.0 | 0.0 | 0.00 | 0.00 | 0.00 | 67 | 1024.2 |
| 20260507101328 | 48 | 45 | 0.0 | 0.0 | 0.00 | 0.00 | 0.00 | 69 | 1024.3 |
| 20260507100328 | 47 | 45 | 0.0 | 0.0 | 0.00 | 0.00 | 0.00 | 70 | 1024.2 |
| 20260507095326 | 47 | 45 | 0.0 | 0.0 | 0.00 | 0.00 | 0.00 | 76 | 1024.3 |
| 20260507094426 | 48 | 45 | 0.0 | 0.0 | 0.00 | 0.00 | 0.00 | 75 | 1024.2 |
| 20260507093426 | 48 | 45 | 0.0 | 0.0 | 0.00 | 0.00 | 0.00 | 74 | 1024.2 |
| 20260507092427 | 48 | 45 | 0.0 | 0.0 | 0.00 | 0.00 | 0.00 | 77 | 1024.3 |
| 20260507091427 | 47 | 45 | 0.0 | 0.0 | 0.00 | 0.00 | 0.00 | 85 | 1024.4 |
| 20260507085428 | 47 | 45 | 0.0 | 0.0 | 0.00 | 0.00 | 0.00 | 92 | 1024.4 |
| 20260507084526 | 47 | 45 | 0.0 | 0.0 | 0.00 | 0.00 | 0.00 | 94 | 1024.5 |
| 20260507083626 | 48 | 45 | 0.0 | 0.0 | 0.00 | 0.00 | 0.00 | 94 | 1024.6 |
| 20260507081626 | 48 | 45 | 0.0 | 0.0 | 0.00 | 0.00 | 0.00 | 94 | 1024.7 |
| 20260507075726 | 49 | 45 | 0.0 | 0.0 | 0.00 | 0.00 | 0.00 | 94 | 1024.8 |
| 20260507074726 | 49 | 45 | 0.0 | 0.0 | 0.00 | 0.00 | 0.00 | 94 | 1024.7 |
| 20260507072728 | 49 | 45 | 0.0 | 0.0 | 0.00 | 0.00 | 0.00 | 94 | 1024.8 |
| 20260507071826 | 49 | 45 | 0.0 | 0.0 | 0.00 | 0.00 | 0.00 | 94 | 1024.8 |
| 20260507070828 | 49 | 45 | 0.0 | 0.0 | 0.00 | 0.00 | 0.00 | 94 | 1025.0 |
| 20260507065912 | 49 | 45 | 0.0 | 0.0 | 0.00 | 0.00 | 0.00 | 93 | 1025.0 |
| 20260507065011 | 49 | 45 | 0.0 | 0.0 | 0.00 | 0.00 | 0.00 | 93 | 1025.1 |
| 20260507064011 | 49 | 45 | 0.0 | 0.0 | 0.00 | 0.00 | 0.00 | 93 | 1025.1 |
| 20260507063012 | 50 | 45 | 0.0 | 0.0 | 0.00 | 0.00 | 0.00 | 93 | 1024.9 |
| 20260507062013 | 50 | 45 | 0.0 | 0.0 | 0.00 | 0.00 | 0.00 | 93 | 1024.9 |
| 20260507061111 | 51 | 45 | 0.0 | 0.0 | 0.00 | 0.00 | 0.00 | 93 | 1024.9 |
| 20260507060112 | 51 | 45 | 0.0 | 0.0 | 0.00 | 0.00 | 0.00 | 93 | 1024.7 |
| 20260507055210 | 51 | 45 | 0.0 | 0.0 | 0.00 | 0.00 | 0.00 | 93 | 1024.6 |
| 20260507054310 | 51 | 45 | 0.0 | 0.0 | 0.00 | 0.00 | 0.00 | 93 | 1024.6 |
| 20260507053312 | 51 | 45 | 0.0 | 0.0 | 0.00 | 0.00 | 0.00 | 93 | 1024.7 |
| 20260507052411 | 51 | 45 | 0.0 | 0.0 | 0.00 | 0.00 | 0.00 | 93 | 1024.6 |
| 20260507051411 | 52 | 45 | 0.0 | 0.0 | 0.00 | 0.00 | 0.00 | 93 | 1024.6 |
| 20260507050411 | 52 | 45 | 0.0 | 0.0 | 0.00 | 0.00 | 0.00 | 93 | 1024.7 |
| 20260507045412 | 52 | 45 | 0.0 | 0.0 | 0.00 | 0.00 | 0.00 | 92 | 1024.8 |
| 20260507044511 | 52 | 45 | 0.0 | 0.0 | 0.00 | 0.00 | 0.00 | 92 | 1024.7 |
| 20260507043511 | 52 | 45 | 0.0 | 0.0 | 0.00 | 0.00 | 0.00 | 92 | 1024.7 |
| 20260507042511 | 52 | 45 | 0.0 | 0.0 | 0.00 | 0.00 | 0.00 | 91 | 1024.6 |
| 20260507041511 | 52 | 45 | 0.0 | 0.0 | 0.00 | 0.00 | 0.00 | 91 | 1024.7 |
| 20260507040510 | 52 | 45 | 0.0 | 0.0 | 0.00 | 0.00 | 0.00 | 91 | 1024.6 |
| 20260507035513 | 53 | 45 | 0.0 | 0.0 | 0.00 | 0.00 | 0.00 | 90 | 1024.5 |
| 20260507032611 | 54 | 45 | 0.0 | 0.0 | 0.00 | 0.00 | 0.00 | 89 | 1024.2 |
| 20260507031610 | 54 | 45 | 0.0 | 0.0 | 0.00 | 0.00 | 0.00 | 88 | 1024.3 |
| 20260507025711 | 55 | 45 | 0.0 | 0.0 | 0.00 | 0.00 | 0.00 | 86 | 1024.2 |
| 20260507024810 | 56 | 45 | 0.0 | 0.0 | 0.00 | 0.00 | 0.00 | 86 | 1024.1 |
| 20260507021910 | 57 | 45 | 0.0 | 0.0 | 0.00 | 0.00 | 0.00 | 82 | 1023.9 |
| 20260507020912 | 58 | 45 | 0.0 | 0.0 | 0.00 | 0.00 | 0.00 | 82 | 1023.8 |
| 20260507015911 | 58 | 45 | 0.0 | 0.0 | 0.00 | 0.00 | 0.00 | 81 | 1023.8 |
| 20260507014910 | 59 | 45 | 0.0 | 0.0 | 0.00 | 0.00 | 0.00 | 80 | 1023.8 |
| 20260507013911 | 59 | 113 | 0.0 | 0.0 | 0.00 | 0.00 | 0.00 | 78 | 1023.8 |
| 20260507012910 | 60 | 135 | 0.0 | 0.0 | 0.00 | 0.00 | 0.00 | 77 | 1023.8 |
| 20260507011911 | 60 | 135 | 0.0 | 0.0 | 0.00 | 0.00 | 0.00 | 76 | 1023.7 |
| 20260507010912 | 60 | 135 | 0.0 | 0.0 | 0.00 | 0.00 | 0.00 | 75 | 1023.7 |
| 20260507010011 | 61 | 157 | 0.0 | 0.0 | 0.00 | 0.00 | 0.00 | 75 | 1023.7 |
| 20260507005013 | 61 | 157 | 0.0 | 0.0 | 0.00 | 0.00 | 0.00 | 73 | 1023.6 |
| 20260507003012 | 62 | 45 | 0.0 | 0.0 | 0.00 | 0.00 | 0.00 | 73 | 1023.6 |
| 20260507002912 | 62 | 46 | 0.0 | 3.0 | 0.00 | 0.00 | 0.00 | 73 | 1023.6 |
| 20260507001912 | 62 | 45 | 0.0 | 0.0 | 0.00 | 0.00 | 0.00 | 72 | 1023.7 |
| 20260507000913 | 62 | 66 | 0.0 | 3.0 | 0.00 | 0.00 | 0.00 | 72 | 1023.6 |
| 20260506235912 | 62 | 360 | 0.0 | 0.0 | 0.00 | 0.00 | 0.00 | 71 | 1023.6 |
| 20260506235010 | 62 | 180 | 0.0 | 0.0 | 0.00 | 0.00 | 0.00 | 71 | 1023.6 |
| 20260506234014 | 62 | 358 | 0.0 | 1.0 | 0.00 | 0.00 | 0.00 | 70 | 1023.6 |
| 20260506233011 | 63 | 176 | 1.0 | 2.0 | 0.00 | 0.00 | 0.00 | 69 | 1023.7 |
| 20260506232011 | 63 | 219 | 0.0 | 2.0 | 0.00 | 0.00 | 0.00 | 68 | 1023.7 |
| 20260506231011 | 63 | 208 | 0.0 | 2.0 | 0.00 | 0.00 | 0.00 | 68 | 1023.8 |
| 20260506230010 | 64 | 224 | 0.0 | 1.0 | 0.00 | 0.00 | 0.00 | 66 | 1023.6 |
| 20260506225010 | 65 | 232 | 0.0 | 0.0 | 0.00 | 0.00 | 0.00 | 65 | 1023.7 |
| 20260506224012 | 64 | 82 | 0.0 | 0.0 | 0.00 | 0.00 | 0.00 | 66 | 1023.8 |
| 20260506223012 | 64 | 135 | 0.0 | 1.0 | 0.00 | 0.00 | 0.00 | 65 | 1023.9 |
| 20260506221111 | 64 | 346 | 0.0 | 2.0 | 0.00 | 0.00 | 0.00 | 64 | 1023.8 |
| 20260506220210 | 64 | 142 | 0.0 | 2.0 | 0.00 | 0.00 | 0.00 | 65 | 1024.0 |
| 20260506215213 | 64 | 48 | 0.0 | 1.0 | 0.00 | 0.00 | 0.00 | 65 | 1024.1 |
| 20260506214212 | 64 | 132 | 0.0 | 1.0 | 0.00 | 0.00 | 0.00 | 63 | 1024.2 |